sensor_id;sensor_type;location;lat;lon;timestamp;P1;durP1;ratioP1;P2;durP2;ratioP2
59756;SDS011;45631;51.962;5.974;2022-08-03T00:01:42;7.90;;;2.58;;
59756;SDS011;45631;51.962;5.974;2022-08-03T00:04:11;6.43;;;2.10;;
59756;SDS011;45631;51.962;5.974;2022-08-03T00:06:39;9.45;;;2.45;;
59756;SDS011;45631;51.962;5.974;2022-08-03T00:09:07;11.00;;;2.55;;
59756;SDS011;45631;51.962;5.974;2022-08-03T00:11:35;7.18;;;2.30;;
59756;SDS011;45631;51.962;5.974;2022-08-03T00:14:04;7.32;;;2.42;;
59756;SDS011;45631;51.962;5.974;2022-08-03T00:16:35;7.75;;;2.20;;
59756;SDS011;45631;51.962;5.974;2022-08-03T00:19:03;10.63;;;2.40;;
59756;SDS011;45631;51.962;5.974;2022-08-03T00:21:31;11.07;;;2.45;;
59756;SDS011;45631;51.962;5.974;2022-08-03T00:24:00;5.18;;;2.08;;
59756;SDS011;45631;51.962;5.974;2022-08-03T00:26:28;7.65;;;2.65;;
59756;SDS011;45631;51.962;5.974;2022-08-03T00:28:57;10.27;;;2.63;;
59756;SDS011;45631;51.962;5.974;2022-08-03T00:31:25;7.85;;;2.33;;
59756;SDS011;45631;51.962;5.974;2022-08-03T00:34:14;9.98;;;2.50;;
59756;SDS011;45631;51.962;5.974;2022-08-03T00:36:55;11.07;;;2.60;;
59756;SDS011;45631;51.962;5.974;2022-08-03T00:39:23;8.90;;;2.30;;
59756;SDS011;45631;51.962;5.974;2022-08-03T00:41:51;5.63;;;2.40;;
59756;SDS011;45631;51.962;5.974;2022-08-03T00:44:19;11.73;;;3.00;;
59756;SDS011;45631;51.962;5.974;2022-08-03T00:46:47;9.90;;;3.00;;
59756;SDS011;45631;51.962;5.974;2022-08-03T00:49:16;10.23;;;3.28;;
59756;SDS011;45631;51.962;5.974;2022-08-03T00:51:45;10.00;;;2.70;;
59756;SDS011;45631;51.962;5.974;2022-08-03T00:54:14;9.20;;;2.95;;
59756;SDS011;45631;51.962;5.974;2022-08-03T00:56:42;9.45;;;2.60;;
59756;SDS011;45631;51.962;5.974;2022-08-03T00:59:25;8.88;;;2.72;;
59756;SDS011;45631;51.962;5.974;2022-08-03T01:01:54;10.65;;;3.55;;
59756;SDS011;45631;51.962;5.974;2022-08-03T01:04:23;7.68;;;2.53;;
59756;SDS011;45631;51.962;5.974;2022-08-03T01:06:57;10.95;;;2.72;;
59756;SDS011;45631;51.962;5.974;2022-08-03T01:09:37;9.10;;;2.50;;
59756;SDS011;45631;51.962;5.974;2022-08-03T01:12:15;8.77;;;2.75;;
59756;SDS011;45631;51.962;5.974;2022-08-03T01:14:50;8.85;;;2.53;;
59756;SDS011;45631;51.962;5.974;2022-08-03T01:17:27;9.23;;;2.33;;
59756;SDS011;45631;51.962;5.974;2022-08-03T01:20:03;7.43;;;2.15;;
59756;SDS011;45631;51.962;5.974;2022-08-03T01:22:36;7.85;;;2.20;;
59756;SDS011;45631;51.962;5.974;2022-08-03T01:25:21;8.13;;;2.50;;
59756;SDS011;45631;51.962;5.974;2022-08-03T01:28:01;8.45;;;2.22;;
59756;SDS011;45631;51.962;5.974;2022-08-03T01:30:47;8.50;;;2.33;;
59756;SDS011;45631;51.962;5.974;2022-08-03T01:35:49;8.93;;;2.60;;
59756;SDS011;45631;51.962;5.974;2022-08-03T01:38:26;8.80;;;2.60;;
59756;SDS011;45631;51.962;5.974;2022-08-03T01:40:58;9.60;;;2.55;;
59756;SDS011;45631;51.962;5.974;2022-08-03T01:43:31;8.30;;;2.50;;
59756;SDS011;45631;51.962;5.974;2022-08-03T01:46:20;6.65;;;2.00;;
59756;SDS011;45631;51.962;5.974;2022-08-03T01:48:51;9.10;;;2.22;;
59756;SDS011;45631;51.962;5.974;2022-08-03T01:51:21;6.78;;;2.25;;
59756;SDS011;45631;51.962;5.974;2022-08-03T01:54:09;9.45;;;2.30;;
59756;SDS011;45631;51.962;5.974;2022-08-03T01:56:40;8.02;;;2.50;;
59756;SDS011;45631;51.962;5.974;2022-08-03T01:59:12;7.75;;;2.50;;
59756;SDS011;45631;51.962;5.974;2022-08-03T02:01:44;6.70;;;2.35;;
59756;SDS011;45631;51.962;5.974;2022-08-03T02:04:33;7.28;;;2.13;;
59756;SDS011;45631;51.962;5.974;2022-08-03T02:07:05;7.60;;;2.30;;
59756;SDS011;45631;51.962;5.974;2022-08-03T02:09:34;9.07;;;2.85;;
59756;SDS011;45631;51.962;5.974;2022-08-03T02:12:06;6.70;;;2.38;;
59756;SDS011;45631;51.962;5.974;2022-08-03T02:14:36;6.50;;;2.40;;
59756;SDS011;45631;51.962;5.974;2022-08-03T02:17:07;11.27;;;2.78;;
59756;SDS011;45631;51.962;5.974;2022-08-03T02:19:36;8.25;;;2.50;;
59756;SDS011;45631;51.962;5.974;2022-08-03T02:22:07;10.27;;;2.40;;
59756;SDS011;45631;51.962;5.974;2022-08-03T02:24:38;9.38;;;2.85;;
59756;SDS011;45631;51.962;5.974;2022-08-03T02:27:12;9.07;;;2.42;;
59756;SDS011;45631;51.962;5.974;2022-08-03T02:29:48;9.30;;;2.60;;
59756;SDS011;45631;51.962;5.974;2022-08-03T02:32:24;10.10;;;2.72;;
59756;SDS011;45631;51.962;5.974;2022-08-03T02:34:57;6.18;;;2.13;;
59756;SDS011;45631;51.962;5.974;2022-08-03T02:37:28;9.95;;;2.63;;
59756;SDS011;45631;51.962;5.974;2022-08-03T02:40:01;8.43;;;2.20;;
59756;SDS011;45631;51.962;5.974;2022-08-03T02:42:32;7.47;;;2.53;;
59756;SDS011;45631;51.962;5.974;2022-08-03T02:45:04;8.63;;;3.20;;
59756;SDS011;45631;51.962;5.974;2022-08-03T02:47:39;8.45;;;2.38;;
59756;SDS011;45631;51.962;5.974;2022-08-03T02:50:20;7.97;;;2.47;;
59756;SDS011;45631;51.962;5.974;2022-08-03T02:52:51;10.05;;;2.55;;
59756;SDS011;45631;51.962;5.974;2022-08-03T02:55:21;8.63;;;2.80;;
59756;SDS011;45631;51.962;5.974;2022-08-03T02:57:53;11.35;;;3.20;;
59756;SDS011;45631;51.962;5.974;2022-08-03T03:00:26;11.57;;;2.63;;
59756;SDS011;45631;51.962;5.974;2022-08-03T03:02:57;10.23;;;2.95;;
59756;SDS011;45631;51.962;5.974;2022-08-03T03:05:29;10.68;;;2.88;;
59756;SDS011;45631;51.962;5.974;2022-08-03T03:08:20;7.43;;;2.50;;
59756;SDS011;45631;51.962;5.974;2022-08-03T03:10:54;11.45;;;2.67;;
59756;SDS011;45631;51.962;5.974;2022-08-03T03:13:24;10.07;;;2.85;;
59756;SDS011;45631;51.962;5.974;2022-08-03T03:15:55;8.07;;;2.80;;
59756;SDS011;45631;51.962;5.974;2022-08-03T03:18:27;7.95;;;2.97;;
59756;SDS011;45631;51.962;5.974;2022-08-03T03:20:58;8.90;;;2.63;;
59756;SDS011;45631;51.962;5.974;2022-08-03T03:23:27;9.23;;;2.83;;
59756;SDS011;45631;51.962;5.974;2022-08-03T03:25:59;6.55;;;2.60;;
59756;SDS011;45631;51.962;5.974;2022-08-03T03:28:27;9.90;;;3.08;;
59756;SDS011;45631;51.962;5.974;2022-08-03T03:30:57;7.97;;;2.53;;
59756;SDS011;45631;51.962;5.974;2022-08-03T03:33:25;9.07;;;2.88;;
59756;SDS011;45631;51.962;5.974;2022-08-03T03:35:55;9.73;;;2.72;;
59756;SDS011;45631;51.962;5.974;2022-08-03T03:38:25;10.82;;;4.07;;
59756;SDS011;45631;51.962;5.974;2022-08-03T03:40:53;8.25;;;3.25;;
59756;SDS011;45631;51.962;5.974;2022-08-03T03:43:22;10.90;;;3.85;;
59756;SDS011;45631;51.962;5.974;2022-08-03T03:45:50;8.05;;;3.10;;
59756;SDS011;45631;51.962;5.974;2022-08-03T03:48:19;11.20;;;3.30;;
59756;SDS011;45631;51.962;5.974;2022-08-03T03:50:48;9.90;;;3.25;;
59756;SDS011;45631;51.962;5.974;2022-08-03T03:53:18;9.27;;;3.00;;
59756;SDS011;45631;51.962;5.974;2022-08-03T03:55:46;9.65;;;2.85;;
59756;SDS011;45631;51.962;5.974;2022-08-03T03:58:28;11.20;;;3.00;;
59756;SDS011;45631;51.962;5.974;2022-08-03T04:00:57;8.60;;;3.10;;
59756;SDS011;45631;51.962;5.974;2022-08-03T04:03:26;9.52;;;3.58;;
59756;SDS011;45631;51.962;5.974;2022-08-03T04:05:54;9.23;;;3.75;;
59756;SDS011;45631;51.962;5.974;2022-08-03T04:08:42;14.05;;;4.20;;
59756;SDS011;45631;51.962;5.974;2022-08-03T04:11:29;10.68;;;4.10;;
59756;SDS011;45631;51.962;5.974;2022-08-03T04:14:04;9.85;;;3.30;;
59756;SDS011;45631;51.962;5.974;2022-08-03T04:19:10;9.77;;;3.95;;
59756;SDS011;45631;51.962;5.974;2022-08-03T04:21:49;16.88;;;4.72;;
59756;SDS011;45631;51.962;5.974;2022-08-03T04:24:24;9.35;;;4.28;;
59756;SDS011;45631;51.962;5.974;2022-08-03T04:26:57;10.50;;;4.32;;
59756;SDS011;45631;51.962;5.974;2022-08-03T04:29:28;14.23;;;4.68;;
59756;SDS011;45631;51.962;5.974;2022-08-03T04:31:59;12.00;;;4.47;;
59756;SDS011;45631;51.962;5.974;2022-08-03T04:34:28;12.55;;;4.53;;
59756;SDS011;45631;51.962;5.974;2022-08-03T04:36:58;10.38;;;4.55;;
59756;SDS011;45631;51.962;5.974;2022-08-03T04:39:30;9.00;;;3.55;;
59756;SDS011;45631;51.962;5.974;2022-08-03T04:42:00;13.95;;;4.60;;
59756;SDS011;45631;51.962;5.974;2022-08-03T04:44:34;11.88;;;4.60;;
59756;SDS011;45631;51.962;5.974;2022-08-03T04:47:04;11.15;;;4.97;;
59756;SDS011;45631;51.962;5.974;2022-08-03T04:49:32;14.65;;;5.82;;
59756;SDS011;45631;51.962;5.974;2022-08-03T04:52:03;10.82;;;5.53;;
59756;SDS011;45631;51.962;5.974;2022-08-03T04:54:39;14.85;;;5.50;;
59756;SDS011;45631;51.962;5.974;2022-08-03T04:57:15;11.65;;;5.40;;
59756;SDS011;45631;51.962;5.974;2022-08-03T04:59:49;15.15;;;6.05;;
59756;SDS011;45631;51.962;5.974;2022-08-03T05:02:27;13.63;;;5.60;;
59756;SDS011;45631;51.962;5.974;2022-08-03T05:04:57;13.98;;;5.68;;
59756;SDS011;45631;51.962;5.974;2022-08-03T05:07:25;12.98;;;6.03;;
59756;SDS011;45631;51.962;5.974;2022-08-03T05:10:04;12.77;;;5.65;;
59756;SDS011;45631;51.962;5.974;2022-08-03T05:12:41;16.17;;;6.57;;
59756;SDS011;45631;51.962;5.974;2022-08-03T05:15:09;16.98;;;6.82;;
59756;SDS011;45631;51.962;5.974;2022-08-03T05:17:38;13.10;;;5.95;;
59756;SDS011;45631;51.962;5.974;2022-08-03T05:20:07;13.88;;;6.20;;
59756;SDS011;45631;51.962;5.974;2022-08-03T05:22:35;13.75;;;5.60;;
59756;SDS011;45631;51.962;5.974;2022-08-03T05:25:05;13.90;;;6.15;;
59756;SDS011;45631;51.962;5.974;2022-08-03T05:27:34;13.20;;;6.47;;
59756;SDS011;45631;51.962;5.974;2022-08-03T05:30:02;13.98;;;6.53;;
59756;SDS011;45631;51.962;5.974;2022-08-03T05:32:51;12.18;;;6.25;;
59756;SDS011;45631;51.962;5.974;2022-08-03T05:35:19;14.90;;;6.72;;
59756;SDS011;45631;51.962;5.974;2022-08-03T05:38:10;14.15;;;6.93;;
59756;SDS011;45631;51.962;5.974;2022-08-03T05:40:51;14.32;;;6.47;;
59756;SDS011;45631;51.962;5.974;2022-08-03T05:43:23;13.48;;;7.20;;
59756;SDS011;45631;51.962;5.974;2022-08-03T05:45:51;15.75;;;7.00;;
59756;SDS011;45631;51.962;5.974;2022-08-03T05:48:38;16.77;;;6.53;;
59756;SDS011;45631;51.962;5.974;2022-08-03T05:51:06;13.30;;;6.30;;
59756;SDS011;45631;51.962;5.974;2022-08-03T05:53:37;17.42;;;6.60;;
59756;SDS011;45631;51.962;5.974;2022-08-03T05:56:07;13.23;;;6.10;;
59756;SDS011;45631;51.962;5.974;2022-08-03T05:58:41;14.70;;;6.05;;
59756;SDS011;45631;51.962;5.974;2022-08-03T06:01:09;16.20;;;5.40;;
59756;SDS011;45631;51.962;5.974;2022-08-03T06:03:38;15.00;;;5.40;;
59756;SDS011;45631;51.962;5.974;2022-08-03T06:06:06;12.82;;;4.60;;
59756;SDS011;45631;51.962;5.974;2022-08-03T06:08:34;15.18;;;5.88;;
59756;SDS011;45631;51.962;5.974;2022-08-03T06:11:02;11.90;;;4.78;;
59756;SDS011;45631;51.962;5.974;2022-08-03T06:13:31;11.57;;;4.05;;
59756;SDS011;45631;51.962;5.974;2022-08-03T06:16:00;10.07;;;3.53;;
59756;SDS011;45631;51.962;5.974;2022-08-03T06:18:28;16.10;;;4.00;;
59756;SDS011;45631;51.962;5.974;2022-08-03T06:20:56;14.82;;;3.85;;
59756;SDS011;45631;51.962;5.974;2022-08-03T06:23:41;10.07;;;3.67;;
59756;SDS011;45631;51.962;5.974;2022-08-03T06:26:20;12.02;;;3.42;;
59756;SDS011;45631;51.962;5.974;2022-08-03T06:28:49;7.75;;;3.03;;
59756;SDS011;45631;51.962;5.974;2022-08-03T06:31:20;12.43;;;3.90;;
59756;SDS011;45631;51.962;5.974;2022-08-03T06:33:49;11.93;;;3.75;;
59756;SDS011;45631;51.962;5.974;2022-08-03T06:36:37;13.60;;;3.63;;
59756;SDS011;45631;51.962;5.974;2022-08-03T06:39:06;10.82;;;3.45;;
59756;SDS011;45631;51.962;5.974;2022-08-03T06:41:34;10.27;;;3.30;;
59756;SDS011;45631;51.962;5.974;2022-08-03T06:44:11;12.60;;;3.50;;
59756;SDS011;45631;51.962;5.974;2022-08-03T06:46:39;15.63;;;3.85;;
59756;SDS011;45631;51.962;5.974;2022-08-03T06:49:08;13.18;;;3.65;;
59756;SDS011;45631;51.962;5.974;2022-08-03T06:51:36;11.68;;;3.25;;
59756;SDS011;45631;51.962;5.974;2022-08-03T06:54:25;15.50;;;3.85;;
59756;SDS011;45631;51.962;5.974;2022-08-03T06:56:58;14.18;;;3.88;;
59756;SDS011;45631;51.962;5.974;2022-08-03T06:59:27;11.60;;;3.13;;
59756;SDS011;45631;51.962;5.974;2022-08-03T07:02:16;13.70;;;3.30;;
59756;SDS011;45631;51.962;5.974;2022-08-03T07:04:46;12.23;;;3.10;;
59756;SDS011;45631;51.962;5.974;2022-08-03T07:07:14;14.50;;;3.20;;
59756;SDS011;45631;51.962;5.974;2022-08-03T07:09:42;14.02;;;3.65;;
59756;SDS011;45631;51.962;5.974;2022-08-03T07:12:22;8.88;;;2.85;;
59756;SDS011;45631;51.962;5.974;2022-08-03T07:14:53;12.82;;;3.17;;
59756;SDS011;45631;51.962;5.974;2022-08-03T07:17:26;12.10;;;2.75;;
59756;SDS011;45631;51.962;5.974;2022-08-03T07:19:54;16.48;;;3.30;;
59756;SDS011;45631;51.962;5.974;2022-08-03T07:22:22;9.95;;;2.78;;
59756;SDS011;45631;51.962;5.974;2022-08-03T07:24:50;13.45;;;3.10;;
59756;SDS011;45631;51.962;5.974;2022-08-03T07:27:18;12.90;;;2.70;;
59756;SDS011;45631;51.962;5.974;2022-08-03T07:29:46;12.73;;;2.83;;
59756;SDS011;45631;51.962;5.974;2022-08-03T07:32:16;14.35;;;2.80;;
59756;SDS011;45631;51.962;5.974;2022-08-03T07:34:44;12.35;;;2.60;;
59756;SDS011;45631;51.962;5.974;2022-08-03T07:37:13;15.18;;;3.58;;
59756;SDS011;45631;51.962;5.974;2022-08-03T07:39:41;14.05;;;2.55;;
59756;SDS011;45631;51.962;5.974;2022-08-03T07:42:09;15.77;;;2.63;;
59756;SDS011;45631;51.962;5.974;2022-08-03T07:44:38;14.23;;;2.67;;
59756;SDS011;45631;51.962;5.974;2022-08-03T07:47:07;14.77;;;3.35;;
59756;SDS011;45631;51.962;5.974;2022-08-03T07:49:49;9.32;;;2.42;;
59756;SDS011;45631;51.962;5.974;2022-08-03T07:52:17;13.82;;;2.75;;
59756;SDS011;45631;51.962;5.974;2022-08-03T07:55:03;10.57;;;2.40;;
59756;SDS011;45631;51.962;5.974;2022-08-03T07:57:33;14.77;;;2.70;;
59756;SDS011;45631;51.962;5.974;2022-08-03T08:00:02;14.07;;;2.42;;
59756;SDS011;45631;51.962;5.974;2022-08-03T08:02:32;13.07;;;2.80;;
59756;SDS011;45631;51.962;5.974;2022-08-03T08:05:02;13.15;;;2.70;;
59756;SDS011;45631;51.962;5.974;2022-08-03T08:07:31;11.00;;;2.33;;
59756;SDS011;45631;51.962;5.974;2022-08-03T08:09:59;13.77;;;3.03;;
59756;SDS011;45631;51.962;5.974;2022-08-03T08:12:27;15.23;;;3.03;;
59756;SDS011;45631;51.962;5.974;2022-08-03T08:14:55;11.90;;;2.45;;
59756;SDS011;45631;51.962;5.974;2022-08-03T08:17:23;16.35;;;2.67;;
59756;SDS011;45631;51.962;5.974;2022-08-03T08:19:51;11.45;;;2.42;;
59756;SDS011;45631;51.962;5.974;2022-08-03T08:22:22;17.83;;;3.17;;
59756;SDS011;45631;51.962;5.974;2022-08-03T08:24:57;14.73;;;2.75;;
59756;SDS011;45631;51.962;5.974;2022-08-03T08:27:26;16.55;;;3.28;;
59756;SDS011;45631;51.962;5.974;2022-08-03T08:30:16;13.00;;;2.60;;
59756;SDS011;45631;51.962;5.974;2022-08-03T08:32:45;16.40;;;2.78;;
59756;SDS011;45631;51.962;5.974;2022-08-03T08:35:14;14.50;;;2.58;;
59756;SDS011;45631;51.962;5.974;2022-08-03T08:37:44;14.10;;;2.55;;
59756;SDS011;45631;51.962;5.974;2022-08-03T08:40:16;16.98;;;2.80;;
59756;SDS011;45631;51.962;5.974;2022-08-03T08:42:48;17.67;;;3.08;;
59756;SDS011;45631;51.962;5.974;2022-08-03T08:45:24;12.38;;;2.60;;
59756;SDS011;45631;51.962;5.974;2022-08-03T08:47:52;16.75;;;2.75;;
59756;SDS011;45631;51.962;5.974;2022-08-03T08:50:28;19.80;;;3.10;;
59756;SDS011;45631;51.962;5.974;2022-08-03T08:52:59;13.40;;;2.50;;
59756;SDS011;45631;51.962;5.974;2022-08-03T08:55:30;13.45;;;2.47;;
59756;SDS011;45631;51.962;5.974;2022-08-03T08:58:20;19.73;;;2.92;;
59756;SDS011;45631;51.962;5.974;2022-08-03T09:00:49;14.68;;;2.97;;
59756;SDS011;45631;51.962;5.974;2022-08-03T09:03:18;15.30;;;3.28;;
59756;SDS011;45631;51.962;5.974;2022-08-03T09:05:56;12.75;;;2.70;;
59756;SDS011;45631;51.962;5.974;2022-08-03T09:08:28;15.00;;;2.88;;
59756;SDS011;45631;51.962;5.974;2022-08-03T09:10:58;19.23;;;3.27;;
59756;SDS011;45631;51.962;5.974;2022-08-03T09:13:26;17.17;;;2.95;;
59756;SDS011;45631;51.962;5.974;2022-08-03T09:16:07;13.10;;;2.50;;
59756;SDS011;45631;51.962;5.974;2022-08-03T09:18:41;16.75;;;3.35;;
59756;SDS011;45631;51.962;5.974;2022-08-03T09:21:13;12.68;;;2.47;;
59756;SDS011;45631;51.962;5.974;2022-08-03T09:24:00;13.88;;;2.60;;
59756;SDS011;45631;51.962;5.974;2022-08-03T09:26:35;18.83;;;3.28;;
59756;SDS011;45631;51.962;5.974;2022-08-03T09:29:04;18.63;;;3.20;;
59756;SDS011;45631;51.962;5.974;2022-08-03T09:31:40;13.30;;;3.13;;
59756;SDS011;45631;51.962;5.974;2022-08-03T09:34:11;16.75;;;2.72;;
59756;SDS011;45631;51.962;5.974;2022-08-03T09:36:40;16.15;;;2.80;;
59756;SDS011;45631;51.962;5.974;2022-08-03T09:39:12;14.82;;;2.55;;
59756;SDS011;45631;51.962;5.974;2022-08-03T09:41:42;15.18;;;3.88;;
59756;SDS011;45631;51.962;5.974;2022-08-03T09:44:11;15.80;;;2.55;;
59756;SDS011;45631;51.962;5.974;2022-08-03T09:46:52;17.58;;;2.88;;
59756;SDS011;45631;51.962;5.974;2022-08-03T09:49:22;22.30;;;3.53;;
59756;SDS011;45631;51.962;5.974;2022-08-03T09:51:51;18.17;;;2.95;;
59756;SDS011;45631;51.962;5.974;2022-08-03T09:54:41;18.17;;;2.90;;
59756;SDS011;45631;51.962;5.974;2022-08-03T09:57:19;15.02;;;3.25;;
59756;SDS011;45631;51.962;5.974;2022-08-03T09:59:49;19.52;;;2.88;;
59756;SDS011;45631;51.962;5.974;2022-08-03T10:02:30;12.50;;;2.20;;
59756;SDS011;45631;51.962;5.974;2022-08-03T10:04:58;14.55;;;2.53;;
59756;SDS011;45631;51.962;5.974;2022-08-03T10:07:26;15.50;;;3.22;;
59756;SDS011;45631;51.962;5.974;2022-08-03T10:09:57;14.80;;;3.00;;
59756;SDS011;45631;51.962;5.974;2022-08-03T10:12:45;13.57;;;2.45;;
59756;SDS011;45631;51.962;5.974;2022-08-03T10:15:14;12.30;;;2.80;;
59756;SDS011;45631;51.962;5.974;2022-08-03T10:18:03;11.73;;;2.47;;
59756;SDS011;45631;51.962;5.974;2022-08-03T10:20:31;18.90;;;3.10;;
59756;SDS011;45631;51.962;5.974;2022-08-03T10:23:06;13.50;;;2.95;;
59756;SDS011;45631;51.962;5.974;2022-08-03T10:25:37;14.57;;;2.50;;
59756;SDS011;45631;51.962;5.974;2022-08-03T10:28:07;15.77;;;2.83;;
59756;SDS011;45631;51.962;5.974;2022-08-03T10:30:43;14.68;;;2.33;;
59756;SDS011;45631;51.962;5.974;2022-08-03T10:33:16;15.43;;;2.83;;
59756;SDS011;45631;51.962;5.974;2022-08-03T10:36:06;13.03;;;2.80;;
59756;SDS011;45631;51.962;5.974;2022-08-03T10:38:36;14.57;;;2.95;;
59756;SDS011;45631;51.962;5.974;2022-08-03T10:41:08;15.18;;;2.58;;
59756;SDS011;45631;51.962;5.974;2022-08-03T10:43:39;17.13;;;2.85;;
59756;SDS011;45631;51.962;5.974;2022-08-03T10:46:14;13.27;;;2.40;;
59756;SDS011;45631;51.962;5.974;2022-08-03T10:48:46;14.43;;;3.25;;
59756;SDS011;45631;51.962;5.974;2022-08-03T10:51:17;11.43;;;2.78;;
59756;SDS011;45631;51.962;5.974;2022-08-03T10:53:46;16.08;;;2.63;;
59756;SDS011;45631;51.962;5.974;2022-08-03T10:56:40;17.27;;;3.22;;
59756;SDS011;45631;51.962;5.974;2022-08-03T10:59:56;11.90;;;2.80;;
59756;SDS011;45631;51.962;5.974;2022-08-03T11:05:37;12.32;;;2.72;;
59756;SDS011;45631;51.962;5.974;2022-08-03T11:08:21;14.65;;;2.92;;
59756;SDS011;45631;51.962;5.974;2022-08-03T11:11:01;11.85;;;2.70;;
59756;SDS011;45631;51.962;5.974;2022-08-03T11:13:57;15.32;;;2.78;;
59756;SDS011;45631;51.962;5.974;2022-08-03T11:16:28;14.90;;;3.10;;
59756;SDS011;45631;51.962;5.974;2022-08-03T11:18:59;12.95;;;2.85;;
59756;SDS011;45631;51.962;5.974;2022-08-03T11:27:28;15.50;;;2.80;;
59756;SDS011;45631;51.962;5.974;2022-08-03T11:29:59;13.45;;;2.55;;
59756;SDS011;45631;51.962;5.974;2022-08-03T11:35:27;13.65;;;2.50;;
59756;SDS011;45631;51.962;5.974;2022-08-03T11:38:03;14.68;;;2.83;;
59756;SDS011;45631;51.962;5.974;2022-08-03T11:40:34;14.90;;;2.75;;
59756;SDS011;45631;51.962;5.974;2022-08-03T11:43:04;15.20;;;2.75;;
59756;SDS011;45631;51.962;5.974;2022-08-03T11:45:35;8.70;;;2.03;;
59756;SDS011;45631;51.962;5.974;2022-08-03T11:48:14;20.02;;;3.15;;
59756;SDS011;45631;51.962;5.974;2022-08-03T11:50:43;11.55;;;2.30;;
59756;SDS011;45631;51.962;5.974;2022-08-03T11:53:15;18.63;;;3.00;;
59756;SDS011;45631;51.962;5.974;2022-08-03T11:55:45;13.65;;;2.67;;
59756;SDS011;45631;51.962;5.974;2022-08-03T11:58:16;14.75;;;2.83;;
59756;SDS011;45631;51.962;5.974;2022-08-03T12:01:06;14.10;;;2.67;;
59756;SDS011;45631;51.962;5.974;2022-08-03T12:03:36;12.57;;;2.67;;
59756;SDS011;45631;51.962;5.974;2022-08-03T12:06:08;10.35;;;2.42;;
59756;SDS011;45631;51.962;5.974;2022-08-03T12:08:37;12.82;;;2.40;;
59756;SDS011;45631;51.962;5.974;2022-08-03T12:11:06;10.77;;;2.00;;
59756;SDS011;45631;51.962;5.974;2022-08-03T12:13:37;12.60;;;2.10;;
59756;SDS011;45631;51.962;5.974;2022-08-03T12:16:28;10.05;;;2.55;;
59756;SDS011;45631;51.962;5.974;2022-08-03T12:18:57;13.05;;;2.70;;
59756;SDS011;45631;51.962;5.974;2022-08-03T12:21:26;13.00;;;2.20;;
59756;SDS011;45631;51.962;5.974;2022-08-03T12:23:57;14.68;;;2.83;;
59756;SDS011;45631;51.962;5.974;2022-08-03T12:28:54;14.65;;;2.80;;
59756;SDS011;45631;51.962;5.974;2022-08-03T12:31:22;12.75;;;2.70;;
59756;SDS011;45631;51.962;5.974;2022-08-03T12:33:56;12.38;;;2.40;;
59756;SDS011;45631;51.962;5.974;2022-08-03T12:36:28;15.10;;;2.70;;
59756;SDS011;45631;51.962;5.974;2022-08-03T12:38:58;14.43;;;2.50;;
59756;SDS011;45631;51.962;5.974;2022-08-03T12:41:28;10.75;;;2.65;;
59756;SDS011;45631;51.962;5.974;2022-08-03T12:43:59;12.48;;;2.63;;
59756;SDS011;45631;51.962;5.974;2022-08-03T12:46:30;13.23;;;2.47;;
59756;SDS011;45631;51.962;5.974;2022-08-03T12:49:04;10.65;;;2.70;;
59756;SDS011;45631;51.962;5.974;2022-08-03T12:51:34;14.93;;;2.85;;
59756;SDS011;45631;51.962;5.974;2022-08-03T12:54:04;12.50;;;2.55;;
59756;SDS011;45631;51.962;5.974;2022-08-03T12:56:32;11.10;;;2.30;;
59756;SDS011;45631;51.962;5.974;2022-08-03T13:02:01;12.70;;;2.47;;
59756;SDS011;45631;51.962;5.974;2022-08-03T13:04:36;10.57;;;2.08;;
59756;SDS011;45631;51.962;5.974;2022-08-03T13:07:05;11.25;;;2.10;;
59756;SDS011;45631;51.962;5.974;2022-08-03T13:09:40;10.90;;;1.92;;
59756;SDS011;45631;51.962;5.974;2022-08-03T13:12:10;8.07;;;2.00;;
59756;SDS011;45631;51.962;5.974;2022-08-03T13:14:39;8.80;;;1.70;;
59756;SDS011;45631;51.962;5.974;2022-08-03T13:17:08;9.93;;;1.63;;
59756;SDS011;45631;51.962;5.974;2022-08-03T13:19:38;10.95;;;2.03;;
59756;SDS011;45631;51.962;5.974;2022-08-03T13:22:10;9.70;;;1.75;;
59756;SDS011;45631;51.962;5.974;2022-08-03T13:24:39;7.10;;;1.63;;
59756;SDS011;45631;51.962;5.974;2022-08-03T13:27:07;7.65;;;1.73;;
59756;SDS011;45631;51.962;5.974;2022-08-03T13:29:56;7.55;;;1.48;;
59756;SDS011;45631;51.962;5.974;2022-08-03T13:32:24;8.85;;;2.00;;
59756;SDS011;45631;51.962;5.974;2022-08-03T13:34:53;6.82;;;1.50;;
59756;SDS011;45631;51.962;5.974;2022-08-03T13:37:22;8.15;;;1.58;;
59756;SDS011;45631;51.962;5.974;2022-08-03T13:39:50;7.30;;;1.70;;
59756;SDS011;45631;51.962;5.974;2022-08-03T13:42:26;7.10;;;1.55;;
59756;SDS011;45631;51.962;5.974;2022-08-03T13:44:55;6.32;;;1.42;;
59756;SDS011;45631;51.962;5.974;2022-08-03T13:47:23;6.72;;;1.63;;
59756;SDS011;45631;51.962;5.974;2022-08-03T13:49:51;7.05;;;1.75;;
59756;SDS011;45631;51.962;5.974;2022-08-03T13:52:28;6.57;;;2.10;;
59756;SDS011;45631;51.962;5.974;2022-08-03T13:55:00;7.00;;;1.90;;
59756;SDS011;45631;51.962;5.974;2022-08-03T13:57:30;8.30;;;1.77;;
59756;SDS011;45631;51.962;5.974;2022-08-03T14:00:18;7.20;;;1.40;;
59756;SDS011;45631;51.962;5.974;2022-08-03T14:02:54;7.40;;;1.60;;
59756;SDS011;45631;51.962;5.974;2022-08-03T14:05:33;5.93;;;1.60;;
59756;SDS011;45631;51.962;5.974;2022-08-03T14:08:04;7.80;;;1.50;;
59756;SDS011;45631;51.962;5.974;2022-08-03T14:10:34;6.20;;;1.60;;
59756;SDS011;45631;51.962;5.974;2022-08-03T14:13:04;5.40;;;1.40;;
59756;SDS011;45631;51.962;5.974;2022-08-03T14:15:32;8.52;;;1.65;;
59756;SDS011;45631;51.962;5.974;2022-08-03T14:18:04;11.10;;;1.73;;
59756;SDS011;45631;51.962;5.974;2022-08-03T14:20:42;8.35;;;1.73;;
59756;SDS011;45631;51.962;5.974;2022-08-03T14:23:19;8.57;;;1.77;;
59756;SDS011;45631;51.962;5.974;2022-08-03T14:25:48;3.75;;;1.38;;
59756;SDS011;45631;51.962;5.974;2022-08-03T14:28:18;5.53;;;1.30;;
59756;SDS011;45631;51.962;5.974;2022-08-03T14:30:49;8.45;;;1.88;;
59756;SDS011;45631;51.962;5.974;2022-08-03T14:33:17;13.75;;;2.10;;
59756;SDS011;45631;51.962;5.974;2022-08-03T14:35:47;7.45;;;2.08;;
59756;SDS011;45631;51.962;5.974;2022-08-03T14:38:15;9.32;;;1.85;;
59756;SDS011;45631;51.962;5.974;2022-08-03T14:40:44;5.75;;;1.45;;
59756;SDS011;45631;51.962;5.974;2022-08-03T14:43:12;4.32;;;1.40;;
59756;SDS011;45631;51.962;5.974;2022-08-03T14:45:42;4.00;;;1.27;;
59756;SDS011;45631;51.962;5.974;2022-08-03T14:48:10;6.28;;;1.50;;
59756;SDS011;45631;51.962;5.974;2022-08-03T14:51:00;6.45;;;1.52;;
59756;SDS011;45631;51.962;5.974;2022-08-03T14:53:28;6.22;;;1.70;;
59756;SDS011;45631;51.962;5.974;2022-08-03T14:55:56;6.38;;;1.48;;
59756;SDS011;45631;51.962;5.974;2022-08-03T14:58:24;5.15;;;1.70;;
59756;SDS011;45631;51.962;5.974;2022-08-03T15:00:52;5.30;;;1.55;;
59756;SDS011;45631;51.962;5.974;2022-08-03T15:03:22;4.72;;;1.55;;
59756;SDS011;45631;51.962;5.974;2022-08-03T15:05:51;4.82;;;1.33;;
59756;SDS011;45631;51.962;5.974;2022-08-03T15:08:23;6.50;;;1.60;;
59756;SDS011;45631;51.962;5.974;2022-08-03T15:10:52;5.30;;;1.58;;
59756;SDS011;45631;51.962;5.974;2022-08-03T15:13:21;4.32;;;1.35;;
59756;SDS011;45631;51.962;5.974;2022-08-03T15:15:50;8.35;;;1.73;;
59756;SDS011;45631;51.962;5.974;2022-08-03T15:18:18;7.00;;;1.50;;
59756;SDS011;45631;51.962;5.974;2022-08-03T15:20:46;6.00;;;1.95;;
59756;SDS011;45631;51.962;5.974;2022-08-03T15:23:16;5.00;;;1.38;;
59756;SDS011;45631;51.962;5.974;2022-08-03T15:25:46;5.15;;;1.35;;
59756;SDS011;45631;51.962;5.974;2022-08-03T15:28:34;6.15;;;1.40;;
59756;SDS011;45631;51.962;5.974;2022-08-03T15:31:03;4.45;;;1.27;;
59756;SDS011;45631;51.962;5.974;2022-08-03T15:33:31;5.10;;;1.90;;
59756;SDS011;45631;51.962;5.974;2022-08-03T15:36:00;3.22;;;1.17;;